Meteorología y climatología de Navarra
Datos de la estación - Meteo Navarra

Estación de Irabia GN

Altitud 822 m.


Datos desde el 30/06/2020 hasta el 01/07/2020 en horario solar
Los datos son PROVISIONALES

Anterior Página 1 de 1 Siguiente Descargar: Formato para Excel 2000 o superior   Formato csv   Formato para OpenOffice Calc
Fecha Temperatura Humedad relativa Radiación global Insolación Precipitación Vel. viento 10 m Vel. viento 10 m Dir. viento 10 m
ºC % W/m² s l/m² m/s km/h º
30/06/2020 0:00 13.8 91 - - - - 0.0 - - - - - -
30/06/2020 0:10 13.7 92 - - - - 0.0 - - - - - -
30/06/2020 0:20 13.7 92 - - - - 0.0 - - - - - -
30/06/2020 0:30 13.6 92 - - - - 0.0 - - - - - -
30/06/2020 0:40 13.4 93 - - - - 0.0 - - - - - -
30/06/2020 0:50 13.5 93 - - - - 0.0 - - - - - -
30/06/2020 1:00 13.6 92 - - - - 0.0 - - - - - -
30/06/2020 1:10 13.4 91 - - - - 0.0 - - - - - -
30/06/2020 1:20 13.4 92 - - - - 0.0 - - - - - -
30/06/2020 1:30 13.3 92 - - - - 0.0 - - - - - -
30/06/2020 1:40 13.2 93 - - - - 0.0 - - - - - -
30/06/2020 1:50 12.9 92 - - - - 0.0 - - - - - -
30/06/2020 2:00 12.7 93 - - - - 0.0 - - - - - -
30/06/2020 2:10 12.5 93 - - - - 0.0 - - - - - -
30/06/2020 2:20 12.4 94 - - - - 0.0 - - - - - -
30/06/2020 2:30 12.2 92 - - - - 0.0 - - - - - -
30/06/2020 2:40 12.0 93 - - - - 0.0 - - - - - -
30/06/2020 2:50 11.9 94 - - - - 0.0 - - - - - -
30/06/2020 3:00 11.8 93 - - - - 0.0 - - - - - -
30/06/2020 3:10 11.8 93 - - - - 0.0 - - - - - -
30/06/2020 3:20 11.4 93 - - - - 0.0 - - - - - -
30/06/2020 3:30 11.4 94 - - - - 0.0 - - - - - -
30/06/2020 3:40 11.2 93 - - - - 0.0 - - - - - -
30/06/2020 3:50 10.9 92 - - - - 0.0 - - - - - -
30/06/2020 4:00 10.6 92 - - - - 0.0 - - - - - -
30/06/2020 4:10 10.3 93 - - - - 0.0 - - - - - -
30/06/2020 4:20 10.6 92 - - - - 0.0 - - - - - -
30/06/2020 4:30 11.0 90 - - - - 0.0 - - - - - -
30/06/2020 4:40 11.0 88 - - - - 0.0 - - - - - -
30/06/2020 4:50 10.6 85 - - - - 0.0 - - - - - -
30/06/2020 5:00 10.4 89 - - - - 0.0 - - - - - -
30/06/2020 5:10 10.2 92 - - - - 0.0 - - - - - -
30/06/2020 5:20 10.4 93 - - - - 0.0 - - - - - -
30/06/2020 5:30 10.4 93 - - - - 0.0 - - - - - -
30/06/2020 5:40 10.5 93 - - - - 0.0 - - - - - -
30/06/2020 5:50 10.6 94 - - - - 0.0 - - - - - -
30/06/2020 6:00 10.8 94 - - - - 0.0 - - - - - -
30/06/2020 6:10 10.9 93 - - - - 0.0 - - - - - -
30/06/2020 6:20 11.3 93 - - - - 0.0 - - - - - -
30/06/2020 6:30 11.8 91 - - - - 0.0 - - - - - -
30/06/2020 6:40 12.5 87 - - - - 0.0 - - - - - -
30/06/2020 6:50 13.1 84 - - - - 0.0 - - - - - -
30/06/2020 7:00 13.9 82 - - - - 0.0 - - - - - -
30/06/2020 7:10 14.7 78 - - - - 0.0 - - - - - -
30/06/2020 7:20 15.2 76 - - - - 0.0 - - - - - -
30/06/2020 7:30 15.9 74 - - - - 0.0 - - - - - -
30/06/2020 7:40 16.6 71 - - - - 0.0 - - - - - -
30/06/2020 7:50 16.8 70 - - - - 0.0 - - - - - -
30/06/2020 8:00 17.4 68 - - - - 0.0 - - - - - -
30/06/2020 8:10 17.5 70 - - - - 0.0 - - - - - -
30/06/2020 8:20 17.7 72 - - - - 0.0 - - - - - -
30/06/2020 8:30 18.2 70 - - - - 0.0 - - - - - -
30/06/2020 8:40 18.4 71 - - - - 0.0 - - - - - -
30/06/2020 8:50 18.8 70 - - - - 0.0 - - - - - -
30/06/2020 9:00 19.6 68 - - - - 0.0 - - - - - -
30/06/2020 9:10 19.9 68 - - - - 0.0 - - - - - -
30/06/2020 9:20 21.0 65 - - - - 0.0 - - - - - -
30/06/2020 9:30 21.8 64 - - - - 0.0 - - - - - -
30/06/2020 9:40 22.7 63 - - - - 0.0 - - - - - -
30/06/2020 9:50 23.0 63 - - - - 0.0 - - - - - -
30/06/2020 10:00 23.2 64 - - - - 0.0 - - - - - -
30/06/2020 10:10 23.6 64 - - - - 0.0 - - - - - -
30/06/2020 10:20 23.9 64 - - - - 0.0 - - - - - -
30/06/2020 10:30 23.8 64 - - - - 0.0 - - - - - -
30/06/2020 10:40 24.3 64 - - - - 0.0 - - - - - -
30/06/2020 10:50 25.3 61 - - - - 0.0 - - - - - -
30/06/2020 11:00 25.1 62 - - - - 0.0 - - - - - -
30/06/2020 11:10 24.2 68 - - - - 0.0 - - - - - -
30/06/2020 11:20 23.5 70 - - - - 0.0 - - - - - -
30/06/2020 11:30 23.9 70 - - - - 0.0 - - - - - -
30/06/2020 11:40 24.4 70 - - - - 0.0 - - - - - -
30/06/2020 11:50 23.9 71 - - - - 0.0 - - - - - -
30/06/2020 12:00 24.5 69 - - - - 0.0 - - - - - -
30/06/2020 12:10 24.9 69 - - - - 0.0 - - - - - -
30/06/2020 12:20 25.2 68 - - - - 0.0 - - - - - -
30/06/2020 12:30 25.1 71 - - - - 0.0 - - - - - -
30/06/2020 12:40 25.9 66 - - - - 0.0 - - - - - -
30/06/2020 12:50 26.0 61 - - - - 0.0 - - - - - -
30/06/2020 13:00 26.1 62 - - - - 0.0 - - - - - -
30/06/2020 13:10 25.2 64 - - - - 0.0 - - - - - -
30/06/2020 13:20 25.4 62 - - - - 0.0 - - - - - -
30/06/2020 13:30 25.3 63 - - - - 0.0 - - - - - -
30/06/2020 13:40 24.6 65 - - - - 0.0 - - - - - -
30/06/2020 13:50 23.6 69 - - - - 0.0 - - - - - -
30/06/2020 14:00 23.7 68 - - - - 0.0 - - - - - -
30/06/2020 14:10 23.9 67 - - - - 0.0 - - - - - -
30/06/2020 14:20 24.2 68 - - - - 0.0 - - - - - -
30/06/2020 14:30 23.9 68 - - - - 0.0 - - - - - -
30/06/2020 14:40 23.5 70 - - - - 0.0 - - - - - -
30/06/2020 14:50 23.7 70 - - - - 0.0 - - - - - -
30/06/2020 15:00 24.0 69 - - - - 0.0 - - - - - -
30/06/2020 15:10 23.5 70 - - - - 0.0 - - - - - -
30/06/2020 15:20 23.6 70 - - - - 0.0 - - - - - -
30/06/2020 15:30 23.4 71 - - - - 0.0 - - - - - -
30/06/2020 15:40 23.4 71 - - - - 0.0 - - - - - -
30/06/2020 15:50 23.7 71 - - - - 0.0 - - - - - -
30/06/2020 16:00 23.4 71 - - - - 0.0 - - - - - -
30/06/2020 16:10 23.2 71 - - - - 0.0 - - - - - -
30/06/2020 16:20 23.3 71 - - - - 0.0 - - - - - -
30/06/2020 16:30 23.1 72 - - - - 0.0 - - - - - -
30/06/2020 16:40 23.1 72 - - - - 0.0 - - - - - -
30/06/2020 16:50 23.1 72 - - - - 0.0 - - - - - -
30/06/2020 17:00 22.8 73 - - - - 0.0 - - - - - -
30/06/2020 17:10 22.5 75 - - - - 0.0 - - - - - -
30/06/2020 17:20 22.6 74 - - - - 0.0 - - - - - -
30/06/2020 17:30 22.5 74 - - - - 0.0 - - - - - -
30/06/2020 17:40 22.5 74 - - - - 0.0 - - - - - -
30/06/2020 17:50 22.1 75 - - - - 0.0 - - - - - -
30/06/2020 18:00 22.0 75 - - - - 0.0 - - - - - -
30/06/2020 18:10 21.9 76 - - - - 0.0 - - - - - -
30/06/2020 18:20 21.6 74 - - - - 0.0 - - - - - -
30/06/2020 18:30 21.1 76 - - - - 0.0 - - - - - -
30/06/2020 18:40 20.6 80 - - - - 0.7 - - - - - -
30/06/2020 18:50 19.7 91 - - - - 0.1 - - - - - -
30/06/2020 19:00 19.1 94 - - - - 0.0 - - - - - -
30/06/2020 19:10 18.9 97 - - - - 0.0 - - - - - -
30/06/2020 19:20 18.7 98 - - - - 0.0 - - - - - -
30/06/2020 19:30 18.5 98 - - - - 0.0 - - - - - -
30/06/2020 19:40 18.4 98 - - - - 0.0 - - - - - -
30/06/2020 19:50 18.1 98 - - - - 0.0 - - - - - -
30/06/2020 20:00 17.9 98 - - - - 0.0 - - - - - -
30/06/2020 20:10 17.8 98 - - - - 0.0 - - - - - -
30/06/2020 20:20 17.6 98 - - - - 0.0 - - - - - -
30/06/2020 20:30 17.5 98 - - - - 0.0 - - - - - -
30/06/2020 20:40 17.5 98 - - - - 0.0 - - - - - -
30/06/2020 20:50 17.5 98 - - - - 0.0 - - - - - -
30/06/2020 21:00 17.4 98 - - - - 0.0 - - - - - -
30/06/2020 21:10 17.4 98 - - - - 0.0 - - - - - -
30/06/2020 21:20 17.3 98 - - - - 0.0 - - - - - -
30/06/2020 21:30 17.2 98 - - - - 0.0 - - - - - -
30/06/2020 21:40 17.1 98 - - - - 0.0 - - - - - -
30/06/2020 21:50 16.9 98 - - - - 0.0 - - - - - -
30/06/2020 22:00 16.8 98 - - - - 0.0 - - - - - -
30/06/2020 22:10 16.6 98 - - - - 0.0 - - - - - -
30/06/2020 22:20 16.5 98 - - - - 0.0 - - - - - -
30/06/2020 22:30 16.4 98 - - - - 0.0 - - - - - -
30/06/2020 22:40 16.4 98 - - - - 0.0 - - - - - -
30/06/2020 22:50 16.3 98 - - - - 0.0 - - - - - -
30/06/2020 23:00 16.3 98 - - - - 0.0 - - - - - -
30/06/2020 23:10 16.2 98 - - - - 0.0 - - - - - -
30/06/2020 23:20 16.2 98 - - - - 0.0 - - - - - -
30/06/2020 23:30 16.3 98 - - - - 0.0 - - - - - -
30/06/2020 23:40 16.3 98 - - - - 0.0 - - - - - -
30/06/2020 23:50 16.1 98 - - - - 0.0 - - - - - -
Anterior Página 1 de 1 Siguiente

NOTA: Tipo de datos según el color:
   - Valores diarios o 10 minutos correctos
   - Valores diarios calculados a partir de un número de datos 10 minutos menor que 144 y mayor que 120, o de un número de datos semihorarios menor que 48 y mayor que 40 (caso de las estaciones de INTIA y del Ministerio)
   - Valores diez minutos estimados


Contacto        Enlaces        Aviso legal